createdAt,value
2019-05-03T00:01:08.153Z,56.22
2019-05-03T00:03:35.821Z,56.95
2019-05-03T00:06:05.547Z,57.42
2019-05-03T00:08:33.409Z,57.08
2019-05-03T00:11:02.314Z,57.67
2019-05-03T00:13:30.044Z,57.03
2019-05-03T00:16:03.655Z,56.77
2019-05-03T00:18:32.780Z,56.85
2019-05-03T00:21:02.139Z,56.67
2019-05-03T00:23:29.991Z,56.64
2019-05-03T00:25:57.659Z,56.99
2019-05-03T00:28:25.320Z,57.06
2019-05-03T00:30:53.011Z,56.79
2019-05-03T00:33:22.511Z,57.46
2019-05-03T00:36:02.489Z,57.46
2019-05-03T00:38:32.417Z,57.42
2019-05-03T00:41:01.738Z,58.00
2019-05-03T00:43:29.137Z,57.64
2019-05-03T00:45:56.896Z,57.19
2019-05-03T00:48:24.617Z,57.66
2019-05-03T00:50:52.287Z,57.71
2019-05-03T00:53:19.935Z,57.50
2019-05-03T00:55:47.610Z,56.97
2019-05-03T00:58:15.524Z,57.21
2019-05-03T01:00:43.479Z,56.98
2019-05-03T01:03:12.574Z,57.63
2019-05-03T01:05:42.265Z,57.38
2019-05-03T01:08:10.099Z,57.40
2019-05-03T01:10:37.759Z,57.16
2019-05-03T01:13:05.635Z,57.23
2019-05-03T01:15:40.051Z,57.56
2019-05-03T01:18:09.532Z,57.10
2019-05-03T01:20:37.351Z,57.10
2019-05-03T01:23:05.136Z,57.23
2019-05-03T01:25:35.419Z,57.30
2019-05-03T01:28:02.178Z,57.02
2019-05-03T01:30:31.945Z,56.94
2019-05-03T01:32:59.591Z,57.11
2019-05-03T01:35:27.253Z,57.21
2019-05-03T01:37:54.915Z,57.03
2019-05-03T01:40:22.576Z,57.15
2019-05-03T01:42:51.846Z,57.19
2019-05-03T01:45:19.713Z,57.06
2019-05-03T01:48:02.056Z,56.92
2019-05-03T01:50:38.332Z,57.33
2019-05-03T01:53:06.943Z,57.27
2019-05-03T01:55:54.488Z,57.84
2019-05-03T01:58:22.236Z,57.70
2019-05-03T02:00:52.405Z,57.33
2019-05-03T02:03:27.138Z,57.26
2019-05-03T02:05:55.035Z,57.78
2019-05-03T02:08:23.145Z,57.42
2019-05-03T02:10:51.740Z,57.44
2019-05-03T02:13:19.554Z,57.33
2019-05-03T02:15:47.211Z,57.18
2019-05-03T02:18:15.250Z,57.78
2019-05-03T02:20:43.037Z,57.50
2019-05-03T02:23:11.940Z,57.62
2019-05-03T02:25:41.714Z,57.88
2019-05-03T02:28:09.107Z,57.59
2019-05-03T02:30:37.122Z,57.28
2019-05-03T02:33:04.945Z,57.70
2019-05-03T02:35:33.345Z,57.53
2019-05-03T02:38:03.626Z,57.30
2019-05-03T02:40:33.579Z,56.88
2019-05-03T02:43:10.018Z,57.20
2019-05-03T02:45:46.981Z,57.10
2019-05-03T02:48:25.473Z,55.20
2019-05-03T02:50:52.528Z,55.87
2019-05-03T02:53:20.274Z,56.44
2019-05-03T02:55:47.928Z,56.43
2019-05-03T02:58:15.959Z,56.44
2019-05-03T03:00:45.436Z,56.87
2019-05-03T03:03:16.004Z,56.15
2019-05-03T03:05:42.672Z,56.49
2019-05-03T03:08:10.320Z,56.50
2019-05-03T03:10:37.977Z,56.45
2019-05-03T03:13:06.026Z,55.53
2019-05-03T03:15:36.319Z,56.19
2019-05-03T03:18:06.141Z,55.85
2019-05-03T03:20:35.050Z,56.30
2019-05-03T03:23:02.188Z,56.82
2019-05-03T03:25:31.620Z,57.06
2019-05-03T03:27:59.462Z,57.39
2019-05-03T03:30:32.299Z,58.29
2019-05-03T03:33:00.019Z,58.75
2019-05-03T03:35:29.847Z,58.76
2019-05-03T03:37:57.079Z,58.89
2019-05-03T03:40:25.430Z,56.88
2019-05-03T03:42:55.521Z,56.58
2019-05-03T03:45:25.160Z,55.63
2019-05-03T03:47:52.077Z,55.73
2019-05-03T03:50:19.732Z,56.31
2019-05-03T03:52:47.421Z,57.35
2019-05-03T03:55:16.141Z,57.03
2019-05-03T03:57:46.716Z,57.49
2019-05-03T04:00:16.263Z,57.95
2019-05-03T04:02:45.691Z,58.52
2019-05-03T04:05:12.759Z,58.41
2019-05-03T04:07:40.685Z,59.00
2019-05-03T04:10:08.368Z,59.62
2019-05-03T04:12:36.026Z,58.03
2019-05-03T04:15:16.024Z,56.87
2019-05-03T04:17:48.342Z,56.76
2019-05-03T04:20:18.725Z,55.89
2019-05-03T04:22:46.481Z,55.46
2019-05-03T04:25:15.369Z,55.41
2019-05-03T04:27:45.351Z,55.67
2019-05-03T04:30:12.759Z,55.63
2019-05-03T04:32:40.567Z,56.02
2019-05-03T04:35:08.214Z,56.24
2019-05-03T04:37:36.174Z,56.85
2019-05-03T04:40:06.155Z,57.10
2019-05-03T04:42:35.754Z,57.03
2019-05-03T04:45:05.642Z,57.90
2019-05-03T04:47:32.119Z,57.55
2019-05-03T04:49:59.786Z,58.03
2019-05-03T04:52:27.453Z,58.12
2019-05-03T04:54:57.202Z,57.80
2019-05-03T04:57:38.812Z,58.00
2019-05-03T04:59:56.023Z,58.33
2019-05-03T05:02:26.420Z,58.00
2019-05-03T05:04:55.412Z,57.78
2019-05-03T05:07:22.632Z,57.84
2019-05-03T05:09:50.525Z,57.24
2019-05-03T05:12:18.182Z,57.67
2019-05-03T05:14:46.057Z,57.62
2019-05-03T05:17:16.376Z,57.93
2019-05-03T05:19:49.856Z,58.45
2019-05-03T05:22:19.458Z,58.49
2019-05-03T05:24:47.108Z,58.55
2019-05-03T05:27:27.702Z,58.32
2019-05-03T05:29:55.498Z,58.40
2019-05-03T05:32:24.777Z,58.81
2019-05-03T05:34:52.673Z,58.96
2019-05-03T05:37:20.340Z,58.98
2019-05-03T05:39:47.984Z,58.93
2019-05-03T05:42:15.672Z,59.64
2019-05-03T05:44:45.254Z,59.35
2019-05-03T05:47:18.047Z,60.11
2019-05-03T05:49:51.720Z,60.63
2019-05-03T05:52:19.377Z,60.88
2019-05-03T05:54:51.765Z,60.31
2019-05-03T05:57:25.615Z,60.56
2019-05-03T05:59:59.102Z,59.63
2019-05-03T06:02:26.756Z,59.60
2019-05-03T06:04:54.486Z,59.49
2019-05-03T06:07:31.696Z,59.90
2019-05-03T06:10:07.420Z,59.54
2019-05-03T06:12:41.163Z,59.41
2019-05-03T06:15:15.560Z,59.73
2019-05-03T06:17:52.051Z,59.91
2019-05-03T06:20:28.271Z,59.59
2019-05-03T06:23:01.510Z,60.00
2019-05-03T06:25:37.116Z,59.63
2019-05-03T06:28:17.789Z,59.47
2019-05-03T06:30:45.448Z,59.62
2019-05-03T06:33:14.401Z,59.92
2019-05-03T06:35:42.259Z,58.93
2019-05-03T06:38:10.175Z,59.34
2019-05-03T06:40:37.851Z,58.32
2019-05-03T06:43:09.837Z,58.66
2019-05-03T06:45:35.455Z,58.65
2019-05-03T06:48:05.421Z,58.21
2019-05-03T06:50:34.662Z,57.08
2019-05-03T06:53:05.911Z,56.88
2019-05-03T06:55:31.582Z,56.47
2019-05-03T06:57:59.384Z,56.27
2019-05-03T07:00:47.004Z,56.10
2019-05-03T07:03:25.306Z,55.73
2019-05-03T07:05:58.382Z,55.40
2019-05-03T07:08:31.340Z,54.27
2019-05-03T07:10:59.908Z,53.81
2019-05-03T07:13:27.728Z,53.91
2019-05-03T07:15:56.007Z,53.53
2019-05-03T07:18:24.756Z,52.80
2019-05-03T07:20:56.989Z,52.56
2019-05-03T07:23:24.907Z,52.86
2019-05-03T07:25:52.649Z,52.84
2019-05-03T07:28:20.329Z,52.98
2019-05-03T07:30:48.112Z,53.53
2019-05-03T07:33:22.614Z,53.50
2019-05-03T07:35:50.266Z,53.56
2019-05-03T07:38:17.920Z,53.33
2019-05-03T07:40:45.617Z,52.65
2019-05-03T07:43:14.834Z,53.33
2019-05-03T07:45:44.570Z,52.62
2019-05-03T07:48:12.399Z,53.15
2019-05-03T07:50:40.108Z,52.38
2019-05-03T07:53:08.032Z,52.25
2019-05-03T07:55:40.826Z,52.15
2019-05-03T07:58:08.844Z,51.74
2019-05-03T08:00:36.696Z,51.17
2019-05-03T08:03:05.044Z,51.22
2019-05-03T08:05:34.866Z,49.94
2019-05-03T08:08:04.698Z,49.62
2019-05-03T08:10:31.896Z,49.48
2019-05-03T08:12:59.636Z,48.53
2019-05-03T08:15:27.295Z,48.28
2019-05-03T08:17:55.430Z,47.90
2019-05-03T08:20:24.842Z,46.84
2019-05-03T08:22:54.611Z,47.33
2019-05-03T08:25:22.160Z,47.79
2019-05-03T08:27:49.816Z,47.83
2019-05-03T08:30:22.204Z,47.31
2019-05-03T08:32:59.591Z,46.90
2019-05-03T08:35:32.121Z,48.38
2019-05-03T08:38:01.043Z,48.57
2019-05-03T08:40:34.866Z,48.75
2019-05-03T08:43:02.042Z,48.95
2019-05-03T08:45:29.723Z,48.48
2019-05-03T08:47:57.546Z,48.36
2019-05-03T08:50:25.796Z,46.74
2019-05-03T08:52:55.688Z,46.12
2019-05-03T08:55:25.005Z,46.21
2019-05-03T08:57:54.950Z,47.11
2019-05-03T09:00:24.911Z,46.71
2019-05-03T09:02:54.761Z,46.99
2019-05-03T09:05:22.187Z,46.73
2019-05-03T09:07:50.872Z,46.07
2019-05-03T09:10:26.705Z,45.89
2019-05-03T09:12:59.583Z,44.75
2019-05-03T09:15:27.239Z,44.85
2019-05-03T09:17:55.347Z,43.95
2019-05-03T09:20:24.990Z,43.38
2019-05-03T09:22:52.473Z,43.75
2019-05-03T09:25:20.142Z,43.59
2019-05-03T09:27:47.787Z,44.12
2019-05-03T09:30:15.875Z,43.34
2019-05-03T09:32:44.827Z,43.44
2019-05-03T09:35:27.213Z,42.66
2019-05-03T09:37:42.060Z,43.74
2019-05-03T09:40:09.757Z,43.29
2019-05-03T09:42:37.415Z,43.69
2019-05-03T09:45:05.221Z,43.75
2019-05-03T09:47:32.928Z,44.24
2019-05-03T09:50:02.192Z,44.85
2019-05-03T09:52:30.319Z,44.29
2019-05-03T09:54:59.834Z,44.21
2019-05-03T09:57:27.482Z,43.75
2019-05-03T09:59:59.772Z,44.14
2019-05-03T10:02:24.731Z,43.52
2019-05-03T10:04:52.650Z,43.12
2019-05-03T10:07:20.348Z,42.66
2019-05-03T10:09:48.216Z,43.73
2019-05-03T10:12:19.818Z,43.59
2019-05-03T10:14:47.476Z,42.64
2019-05-03T10:17:27.606Z,43.97
2019-05-03T10:19:55.371Z,43.33
2019-05-03T10:22:25.151Z,43.53
2019-05-03T10:24:52.390Z,44.47
2019-05-03T10:27:20.121Z,43.44
2019-05-03T10:29:47.856Z,43.19
2019-05-03T10:32:25.270Z,43.05
2019-05-03T10:34:56.407Z,42.66
2019-05-03T10:37:30.912Z,42.48
2019-05-03T10:39:58.625Z,42.72
2019-05-03T10:42:26.290Z,42.37
2019-05-03T10:44:55.547Z,42.43
2019-05-03T10:47:25.327Z,42.17
2019-05-03T10:49:52.666Z,42.46
2019-05-03T10:52:25.773Z,42.74
2019-05-03T10:54:55.727Z,42.39
2019-05-03T10:57:24.840Z,42.88
2019-05-03T10:59:52.868Z,42.38
2019-05-03T11:02:37.605Z,42.81
2019-05-03T11:05:05.420Z,43.09
2019-05-03T11:07:34.591Z,42.90
2019-05-03T11:10:02.436Z,43.02
2019-05-03T11:12:30.148Z,42.60
2019-05-03T11:14:57.811Z,43.19
2019-05-03T11:17:25.784Z,43.32
2019-05-03T11:19:54.715Z,43.34
2019-05-03T11:22:22.527Z,43.65
2019-05-03T11:24:50.175Z,43.32
2019-05-03T11:27:24.702Z,43.43
2019-05-03T11:29:52.180Z,42.65
2019-05-03T11:32:29.274Z,42.84
2019-05-03T11:35:04.432Z,42.95
2019-05-03T11:37:45.262Z,42.77
2019-05-03T11:40:12.685Z,43.25
2019-05-03T11:42:40.410Z,43.20
2019-05-03T11:45:08.063Z,41.63
2019-05-03T11:47:36.080Z,42.17
2019-05-03T11:50:03.815Z,41.71
2019-05-03T11:52:32.154Z,42.17
2019-05-03T11:54:59.875Z,41.21
2019-05-03T11:57:28.058Z,41.60
2019-05-03T11:59:55.758Z,41.04
2019-05-03T12:02:44.624Z,40.50
2019-05-03T12:05:18.732Z,40.77
2019-05-03T12:07:46.627Z,40.59
2019-05-03T12:10:29.784Z,40.79
2019-05-03T12:12:45.481Z,39.75
2019-05-03T12:15:14.981Z,39.32
2019-05-03T12:17:53.841Z,39.50
2019-05-03T12:20:17.121Z,39.20
2019-05-03T12:22:43.728Z,38.88
2019-05-03T12:25:13.201Z,39.34
2019-05-03T12:27:41.745Z,39.14
2019-05-03T12:30:09.410Z,37.79
2019-05-03T12:32:37.065Z,36.90
2019-05-03T12:35:06.095Z,37.40
2019-05-03T12:37:35.361Z,38.12
2019-05-03T12:40:05.396Z,39.15
2019-05-03T12:42:35.223Z,38.09
2019-05-03T12:45:02.164Z,37.73
2019-05-03T12:47:29.910Z,37.81
2019-05-03T12:49:57.587Z,37.68
2019-05-03T12:52:26.779Z,38.06
2019-05-03T12:54:55.182Z,38.14
2019-05-03T12:57:24.817Z,38.14
2019-05-03T13:00:05.503Z,37.47
2019-05-03T13:02:44.182Z,36.78
2019-05-03T13:05:11.667Z,36.80
2019-05-03T13:07:45.556Z,36.66
2019-05-03T13:10:13.308Z,36.69
2019-05-03T13:12:50.616Z,36.81
2019-05-03T13:15:10.827Z,36.88
2019-05-03T13:17:38.525Z,37.91
2019-05-03T13:20:06.194Z,37.72
2019-05-03T13:22:35.064Z,37.42
2019-05-03T13:25:03.170Z,37.98
2019-05-03T13:27:30.900Z,37.29
2019-05-03T13:29:58.548Z,37.79
2019-05-03T13:32:26.216Z,37.01
2019-05-03T13:34:55.331Z,37.31
2019-05-03T13:37:25.356Z,37.49
2019-05-03T13:39:52.744Z,37.33
2019-05-03T13:42:20.403Z,37.17
2019-05-03T13:44:48.073Z,36.68
2019-05-03T13:47:15.803Z,36.33
2019-05-03T13:49:44.726Z,37.08
2019-05-03T13:52:14.446Z,36.22
2019-05-03T13:54:41.972Z,36.25
2019-05-03T13:57:09.742Z,37.02
2019-05-03T13:59:37.625Z,36.37
2019-05-03T14:02:14.994Z,35.53
2019-05-03T14:04:48.674Z,34.33
2019-05-03T14:07:04.693Z,34.81
2019-05-03T14:09:34.592Z,34.53
2019-05-03T14:12:01.894Z,34.03
2019-05-03T14:14:32.411Z,33.63
2019-05-03T14:17:00.151Z,34.83
2019-05-03T14:19:34.743Z,34.97
2019-05-03T14:22:05.276Z,35.48
2019-05-03T14:24:35.066Z,34.86
2019-05-03T14:27:02.747Z,34.86
2019-05-03T14:29:30.476Z,35.38
2019-05-03T14:31:58.150Z,36.29
2019-05-03T14:34:25.961Z,35.35
2019-05-03T14:37:55.066Z,34.95
2019-05-03T14:40:24.945Z,34.39
2019-05-03T14:42:52.404Z,35.73
2019-05-03T14:45:20.065Z,36.17
2019-05-03T14:47:47.720Z,35.64
2019-05-03T14:50:15.463Z,35.39
2019-05-03T14:52:45.313Z,35.83
2019-05-03T14:55:19.595Z,36.13
2019-05-03T14:57:55.285Z,35.62
2019-05-03T15:00:30.306Z,35.68
2019-05-03T15:03:01.600Z,35.85
2019-05-03T15:05:29.258Z,36.07
2019-05-03T15:07:56.984Z,35.73
2019-05-03T15:10:24.728Z,41.94
2019-05-03T18:05:28.671Z,38.55
2019-05-03T18:08:15.496Z,39.82
2019-05-03T18:10:47.097Z,39.21
2019-05-03T18:13:14.821Z,40.05
2019-05-03T18:15:42.553Z,39.94
2019-05-03T18:18:10.219Z,40.72
2019-05-03T18:20:37.887Z,40.68
2019-05-03T18:23:05.543Z,40.72
2019-05-03T18:25:35.324Z,41.07
2019-05-03T18:28:02.735Z,41.23
2019-05-03T18:30:30.420Z,41.39
2019-05-03T18:32:58.084Z,41.25
2019-05-03T18:35:25.783Z,41.50
2019-05-03T18:37:59.415Z,41.20
2019-05-03T18:40:27.832Z,41.54
2019-05-03T18:43:00.424Z,41.06
2019-05-03T18:45:45.341Z,41.59
2019-05-03T18:48:14.379Z,42.17
2019-05-03T18:50:42.259Z,42.40
2019-05-03T18:53:09.916Z,42.02
2019-05-03T18:55:37.595Z,42.89
2019-05-03T18:58:05.252Z,42.88
2019-05-03T19:00:35.144Z,43.72
2019-05-03T19:03:03.164Z,43.75
2019-05-03T19:05:32.471Z,44.42
2019-05-03T19:08:07.989Z,44.21
2019-05-03T19:10:42.323Z,44.28
2019-05-03T19:13:15.549Z,44.13
2019-05-03T19:15:43.212Z,43.49
2019-05-03T19:18:16.921Z,44.72
2019-05-03T19:20:45.542Z,43.81
2019-05-03T19:23:15.320Z,44.06
2019-05-03T19:25:46.826Z,43.65
2019-05-03T19:28:12.263Z,44.06
2019-05-03T19:30:41.706Z,44.39
2019-05-03T19:33:09.372Z,44.79
2019-05-03T19:35:37.104Z,45.64
2019-05-03T19:38:05.008Z,45.94
2019-05-03T19:40:32.802Z,46.60
2019-05-03T19:43:02.746Z,46.82
2019-05-03T19:45:30.060Z,48.06
2019-05-03T19:47:57.718Z,47.53
2019-05-03T19:50:27.260Z,47.49
2019-05-03T19:53:01.130Z,47.54
2019-05-03T19:55:28.780Z,48.38
2019-05-03T19:57:56.630Z,48.60
2019-05-03T20:00:26.415Z,49.19
2019-05-03T20:02:58.907Z,49.04
2019-05-03T20:05:35.363Z,49.53
2019-05-03T20:08:08.743Z,49.64
2019-05-03T20:10:36.400Z,49.52
2019-05-03T20:13:04.672Z,50.07
2019-05-03T20:15:32.603Z,49.93
2019-05-03T20:18:00.485Z,49.86
2019-05-03T20:20:28.478Z,49.98
2019-05-03T20:22:58.936Z,49.56
2019-05-03T20:25:25.688Z,49.75
2019-05-03T20:27:53.344Z,50.34
2019-05-03T20:30:21.038Z,49.87
2019-05-03T20:32:48.747Z,49.99
2019-05-03T20:35:19.188Z,50.44
2019-05-03T20:37:45.824Z,51.20
2019-05-03T20:40:15.257Z,51.73
2019-05-03T20:42:55.743Z,51.91
2019-05-03T20:45:28.066Z,52.12
2019-05-03T20:47:57.711Z,52.18
2019-05-03T20:50:25.398Z,51.54
2019-05-03T20:52:54.838Z,51.29
2019-05-03T20:55:22.424Z,51.42
2019-05-03T20:57:50.092Z,50.98
2019-05-03T21:00:20.056Z,51.29
2019-05-03T21:02:53.359Z,51.60
2019-05-03T21:05:26.642Z,51.69
2019-05-03T21:07:46.670Z,51.12
2019-05-03T21:10:15.602Z,51.63
2019-05-03T21:12:43.508Z,51.08
2019-05-03T21:15:16.860Z,50.18
2019-05-03T21:17:51.791Z,49.96
2019-05-03T21:20:25.284Z,49.87
2019-05-03T21:22:54.776Z,49.96
2019-05-03T21:25:28.444Z,49.89
2019-05-03T21:27:56.128Z,49.36
2019-05-03T21:30:24.685Z,49.04
2019-05-03T21:32:52.521Z,49.30
2019-05-03T21:35:20.653Z,49.56
2019-05-03T21:37:48.384Z,49.71
2019-05-03T21:40:16.063Z,49.41
2019-05-03T21:42:45.206Z,49.84
2019-05-03T21:45:15.111Z,50.35
2019-05-03T21:47:48.848Z,50.19
2019-05-03T21:50:17.999Z,50.04
2019-05-03T21:52:45.857Z,50.01
2019-05-03T21:55:14.477Z,50.13
2019-05-03T21:57:42.241Z,50.39
2019-05-03T22:00:10.080Z,50.34
2019-05-03T22:02:37.740Z,50.26
2019-05-03T22:05:05.409Z,50.93
2019-05-03T22:07:34.917Z,50.43
2019-05-03T22:10:04.887Z,50.86
2019-05-03T22:12:32.637Z,51.35
2019-05-03T22:15:09.644Z,51.05
2019-05-03T22:17:44.633Z,51.22
2019-05-03T22:20:21.420Z,51.08
2019-05-03T22:22:56.247Z,50.79
2019-05-03T22:25:27.241Z,50.60
2019-05-03T22:27:54.891Z,51.24
2019-05-03T22:30:24.358Z,52.71
2019-05-03T22:32:52.116Z,52.49
2019-05-03T22:35:19.963Z,51.85
2019-05-03T22:37:47.931Z,51.89
2019-05-03T22:40:15.564Z,51.28
2019-05-03T22:42:44.847Z,50.32
2019-05-03T22:45:12.584Z,50.31
2019-05-03T22:47:40.231Z,50.85
2019-05-03T22:50:07.926Z,49.91
2019-05-03T22:52:35.575Z,49.72
2019-05-03T22:55:04.741Z,50.54
2019-05-03T22:57:32.494Z,50.18
2019-05-03T23:00:00.175Z,48.98
2019-05-03T23:02:27.883Z,49.14
2019-05-03T23:04:55.783Z,49.54
2019-05-03T23:07:24.961Z,49.44
2019-05-03T23:09:52.835Z,50.25
2019-05-03T23:12:20.528Z,50.41
2019-05-03T23:14:48.226Z,51.32
2019-05-03T23:17:15.880Z,51.05
2019-05-03T23:19:45.292Z,50.60
2019-05-03T23:22:30.942Z,50.78
2019-05-03T23:24:58.764Z,50.98
2019-05-03T23:27:26.505Z,51.35
2019-05-03T23:29:54.497Z,50.98
2019-05-03T23:32:24.321Z,51.14
2019-05-03T23:34:51.783Z,51.01
2019-05-03T23:37:19.555Z,50.95
2019-05-03T23:39:47.849Z,52.06
2019-05-03T23:42:15.612Z,51.55
2019-05-03T23:44:45.455Z,50.55
2019-05-03T23:47:22.340Z,50.76
2019-05-03T23:49:49.996Z,51.24
2019-05-03T23:52:23.054Z,51.33
2019-05-03T23:54:50.679Z,51.01
2019-05-03T23:57:18.331Z,51.37
2019-05-03T23:59:46.073Z,51.43
